WMKP/PEN METAR and TAF weather

Enter ICAO airport designator
Station Type Date Time Source
WMKP METAR 2019/10/15 21:00 UTC NOAA

WMKP 152100Z VRB01KT 9000 FEW025 SCT140 BKN270 24/23 Q1008 NOSIG


Station Type Date Time Source
WMKP Decoded METAR 2019/10/15 21:00 UTC NOAA

Penang / Bayan Lepas, Malaysia (WMKP) 05-18N 100-16E 4M
Oct 15, 2019 - 05:00 PM EDT / 2019.10.15 2100 UTC
Wind: Variable at 1 MPH (1 KT):0
Visibility: 5 mile(s):0
Sky conditions: mostly cloudy
Temperature: 75 F (24 C)
Dew Point: 73 F (23 C)
Relative Humidity: 94%
Pressure (altimeter): 29.77 in. Hg (1008 hPa)
ob: WMKP 152100Z VRB01KT 9000 FEW025 SCT140 BKN270 24/23 Q1008 NOSIG
cycle: 21

Station Type Date Time Source
WMKP TAF 2019/10/15 18:09 UTC NOAA

TAF WMKP 151700Z 1518/1618 VRB03KT 9000 FEW025
BECMG 1603/1605 24010KT FEW020
TEMPO 1610/1614 5000 TSRA FEW010 FEW017CB
BECMG 1610/1612 VRB03KT FEW025

Example: see airport list